Stormwatcher's Retreat Logo




                  Temp     Hi    Low   Out    Dew  Wind  Wind   Wind    Hi    Hi   Wind   Heat    THW   THSW                Rain  Solar   Solar Hi Solar   UV    UV    Hi     Heat    Cool    In     In    In     In     In   In Air          Wind  Wind    ISS   Arc.
  Date    Time     Out   Temp   Temp   Hum    Pt. Speed   Dir    Run Speed   Dir  Chill  Index  Index  Index   Bar    Rain  Rate   Rad.  Energy    Rad.  Index  Dose   UV     D-D     D-D    Temp   Hum    Dew   Heat    EMC Density     ET   Samp   Tx   Recept  Int.
------------------------------------------------------------------------------------------------------------------------------------------------------------------------------------------------------------------------------------------------------------------------
 5/19/24 12:10a   48.7   49.0   48.7    86   44.7   2.0   ENE   0.33   6.0     E   48.7   48.8   48.8   45.5  30.225  0.00  0.00     0     0.00      0     0.0  0.00   0.0   0.113   0.000   70.3    51   51.3   68.8   9.44  .0747    0.000   202    7    100.0   10 
 5/19/24 12:20a   48.6   48.7   48.6    86   44.6   2.0   ENE   0.33   6.0     E   48.6   48.7   48.7   45.4  30.227  0.00  0.00     0     0.00      0     0.0  0.00   0.0   0.114   0.000   70.3    51   51.3   68.8   9.44  .0747    0.000   202    7    100.0   10 
 5/19/24 12:30a   48.5   48.7   48.5    86   44.5   2.0   ENE   0.33   5.0     E   48.5   48.6   48.6   45.3  30.227  0.00  0.00     0     0.00      0     0.0  0.00   0.0   0.115   0.000   70.2    51   51.2   68.6   9.45  .0747    0.000   202    7    100.0   10 
 5/19/24 12:40a   48.6   48.7   48.5    87   44.9   2.0   ENE   0.33   5.0   NNE   48.6   48.7   48.7   45.4  30.229  0.00  0.00     0     0.00      0     0.0  0.00   0.0   0.114   0.000   70.1    51   51.1   68.5   9.45  .0747    0.000   204    7    100.0   10 
 5/19/24 12:50a   48.8   48.8   48.6    87   45.1   2.0   ENE   0.33   4.0   ENE   48.8   49.0   49.0   45.7  30.230  0.00  0.00     0     0.00      0     0.0  0.00   0.0   0.113   0.000   70.1    51   51.1   68.5   9.45  .0747    0.000   204    7    100.0   10 
 5/19/24  1:00a   48.9   48.9   48.7    87   45.2   1.0   ENE   0.17   4.0   ENE   48.9   49.1   49.1   45.8  30.229  0.00  0.00     0     0.00      0     0.0  0.00   0.0   0.112   0.000   70.1    51   51.1   68.5   9.45  .0747    0.000   203    7    100.0   10 
 5/19/24  1:10a   49.0   49.0   48.8    87   45.3   2.0   ENE   0.33   5.0    NE   49.0   49.2   49.2   45.9  30.230  0.00  0.00     0     0.00      0     0.0  0.00   0.0   0.111   0.000   70.0    51   51.0   68.4   9.45  .0748    0.000   202    7    100.0   10 
 5/19/24  1:20a   49.0   49.1   49.0    87   45.3   2.0   ENE   0.33   5.0     E   49.0   49.2   49.2   45.9  30.230  0.00  0.00     0     0.00      0     0.0  0.00   0.0   0.111   0.000   70.0    51   51.0   68.4   9.45  .0748    0.000   202    7    100.0   10 
 5/19/24  1:30a   49.0   49.1   49.0    87   45.3   1.0    NE   0.17   4.0   ENE   49.0   49.2   49.2   45.9  30.234  0.00  0.00     0     0.00      0     0.0  0.00   0.0   0.111   0.000   70.0    51   51.0   68.4   9.45  .0748    0.000   205    7    100.0   10 
 5/19/24  1:40a   48.9   49.0   48.9    86   44.9   1.0    NE   0.17   4.0    NE   48.9   49.0   49.0   45.7  30.233  0.00  0.00     0     0.00      0     0.0  0.00   0.0   0.112   0.000   69.9    51   50.9   68.3   9.45  .0748    0.000   202    7    100.0   10 
 5/19/24  1:50a   48.9   49.0   48.8    87   45.2   1.0    NE   0.17   4.0    NE   48.9   49.1   49.1   45.8  30.235  0.00  0.00     0     0.00      0     0.0  0.00   0.0   0.112   0.000   69.9    51   50.9   68.3   9.45  .0748    0.000   203    7    100.0   10 
 5/19/24  2:00a   49.0   49.0   48.9    86   45.0   1.0    NE   0.17   3.0   ENE   49.0   49.1   49.1   45.8  30.235  0.00  0.00     0     0.00      0     0.0  0.00   0.0   0.111   0.000   69.9    51   50.9   68.3   9.45  .0748    0.000   203    7    100.0   10 
 5/19/24  2:10a   49.0   49.0   48.9    87   45.3   1.0   ENE   0.17   4.0   ENE   49.0   49.2   49.2   45.9  30.237  0.00  0.00     0     0.00      0     0.0  0.00   0.0   0.111   0.000   69.8    51   50.9   68.2   9.45  .0748    0.000   204    7    100.0   10 
 5/19/24  2:20a   49.2   49.2   49.0    87   45.5   1.0   ENE   0.17   4.0    NE   49.2   49.4   49.4   46.1  30.235  0.00  0.00     0     0.00      0     0.0  0.00   0.0   0.110   0.000   69.8    51   50.9   68.2   9.45  .0748    0.000   203    7    100.0   10 
 5/19/24  2:30a   49.1   49.2   49.1    87   45.4   1.0   ENE   0.17   3.0   ENE   49.1   49.3   49.3   46.0  30.237  0.00  0.00     0     0.00      0     0.0  0.00   0.0   0.110   0.000   69.7    51   50.8   68.2   9.46  .0748    0.000   201    7    100.0   10 
 5/19/24  2:40a   49.0   49.2   48.9    86   45.0   1.0   ENE   0.17   3.0    NE   49.0   49.1   49.1   45.8  30.234  0.00  0.00     0     0.00      0     0.0  0.00   0.0   0.111   0.000   69.7    51   50.8   68.2   9.46  .0748    0.000   204    7    100.0   10 
 5/19/24  2:50a   48.7   49.0   48.7    86   44.7   1.0   ENE   0.17   3.0   ENE   48.7   48.8   48.8   45.5  30.233  0.00  0.00     0     0.00      0     0.0  0.00   0.0   0.113   0.000   69.7    50   50.2   68.1   9.26  .0748    0.000   203    7    100.0   10 
 5/19/24  3:00a   48.6   48.7   48.5    86   44.6   0.0   ENE   0.00   2.0   ENE   48.6   48.7   48.7   45.4  30.234  0.00  0.00     0     0.00      0     0.0  0.00   0.0   0.114   0.000   69.6    50   50.1   68.0   9.26  .0749    0.000   201    7    100.0   10 
 5/19/24  3:10a   48.5   48.6   48.4    87   44.8   1.0   ENE   0.17   2.0   ENE   48.5   48.6   48.6   45.3  30.236  0.00  0.00     0     0.00      0     0.0  0.00   0.0   0.115   0.000   69.6    50   50.1   68.0   9.26  .0749    0.000   204    7    100.0   10 
 5/19/24  3:20a   48.5   48.5   48.4    87   44.8   2.0     E   0.33   3.0   ENE   48.5   48.6   48.6   45.3  30.236  0.00  0.00     0     0.00      0     0.0  0.00   0.0   0.115   0.000   69.5    50   50.0   67.9   9.26  .0749    0.000   204    7    100.0   10 
 5/19/24  3:30a   48.5   48.6   48.5    87   44.8   2.0     E   0.33   4.0   ENE   48.5   48.6   48.6   45.3  30.236  0.00  0.00     0     0.00      0     0.0  0.00   0.0   0.115   0.000   69.5    50   50.0   67.9   9.26  .0749    0.000   204    7    100.0   10 
 5/19/24  3:40a   48.4   48.5   48.3    87   44.7   2.0     E   0.33   4.0   ENE   48.4   48.5   48.5   45.2  30.237  0.00  0.00     0     0.00      0     0.0  0.00   0.0   0.115   0.000   69.4    50   49.9   67.9   9.26  .0749    0.000   202    7    100.0   10 
 5/19/24  3:50a   48.4   48.4   48.3    87   44.7   2.0     E   0.33   4.0     E   48.4   48.5   48.5   45.2  30.239  0.00  0.00     0     0.00      0     0.0  0.00   0.0   0.115   0.000   69.4    50   49.9   67.9   9.26  .0749    0.000   201    7    100.0   10 
 5/19/24  4:00a   48.4   48.5   48.3    87   44.7   2.0     E   0.33   4.0     E   48.4   48.5   48.5   45.2  30.239  0.00  0.00     0     0.00      0     0.0  0.00   0.0   0.115   0.000   69.4    50   49.9   67.9   9.26  .0749    0.000   203    7    100.0   10 
 5/19/24  4:10a   48.5   48.5   48.4    87   44.8   2.0     E   0.33   3.0     E   48.5   48.6   48.6   45.3  30.239  0.00  0.00     0     0.00      0     0.0  0.00   0.0   0.115   0.000   69.3    50   49.9   67.8   9.26  .0749    0.000   202    7    100.0   10 
 5/19/24  4:20a   48.6   48.6   48.5    87   44.9   2.0     E   0.33   4.0   ENE   48.6   48.7   48.7   45.4  30.240  0.00  0.00     0     0.00      0     0.0  0.00   0.0   0.114   0.000   69.2    50   49.8   67.7   9.27  .0749    0.000   203    7    100.0   10 
 5/19/24  4:30a   48.3   48.6   48.3    87   44.6   3.0     E   0.50   6.0     E   47.7   48.4   47.8   44.5  30.240  0.00  0.00     0     0.00      0     0.0  0.00   0.0   0.116   0.000   69.2    50   49.8   67.7   9.27  .0749    0.000   201    7    100.0   10 
 5/19/24  4:40a   48.2   48.3   48.1    87   44.5   3.0     E   0.50   6.0     E   47.6   48.3   47.7   44.4  30.241  0.00  0.00     0     0.00      0     0.0  0.00   0.0   0.117   0.000   69.2    50   49.8   67.7   9.27  .0749    0.000   203    7    100.0   10 
 5/19/24  4:50a   48.2   48.2   48.1    87   44.5   3.0     E   0.50   5.0     E   47.6   48.3   47.7   44.4  30.243  0.00  0.00     0     0.00      0     0.0  0.00   0.0   0.117   0.000   69.1    50   49.7   67.7   9.27  .0750    0.000   202    7    100.0   10 
 5/19/24  5:00a   48.1   48.2   48.1    87   44.4   3.0     E   0.50   5.0   ENE   47.5   48.2   47.6   44.3  30.244  0.00  0.00     0     0.00      0     0.0  0.00   0.0   0.117   0.000   69.0    50   49.6   67.6   9.27  .0750    0.001   201    7    100.0   10 
 5/19/24  5:10a   47.9   48.1   47.9    87   44.2   3.0     E   0.50   7.0   ENE   47.3   48.0   47.4   44.1  30.246  0.00  0.00     0     0.00      0     0.0  0.00   0.0   0.119   0.000   69.0    50   49.6   67.6   9.27  .0750    0.000   204    7    100.0   10 
 5/19/24  5:20a   47.8   47.9   47.8    87   44.1   3.0     E   0.50   6.0     E   47.2   47.9   47.3   44.0  30.249  0.00  0.00     0     0.00      0     0.0  0.00   0.0   0.119   0.000   69.0    50   49.6   67.6   9.27  .0750    0.000   203    7    100.0   10 
 5/19/24  5:30a   48.0   48.1   47.8    88   44.6   2.0     E   0.33   5.0    SE   48.0   48.1   48.1   44.8  30.250  0.00  0.00     0     0.00      0     0.0  0.00   0.0   0.118   0.000   69.0    50   49.6   67.6   9.27  .0750    0.000   202    7    100.0   10 
 5/19/24  5:40a   48.2   48.2   48.0    88   44.8   1.0   ESE   0.17   4.0   ESE   48.2   48.3   48.3   45.0  30.253  0.00  0.00     0     0.00      0     0.0  0.00   0.0   0.117   0.000   69.1    50   49.7   67.7   9.27  .0750    0.000   203    7    100.0   10 
 5/19/24  5:50a   48.4   48.4   48.2    88   45.0   1.0   ESE   0.17   2.0     E   48.4   48.6   48.6   45.3  30.257  0.00  0.00     0     0.00      0     0.0  0.00   0.0   0.115   0.000   69.2    50   49.8   67.7   9.27  .0750    0.000   202    7    100.0   10 
 5/19/24  6:00a   48.6   48.6   48.4    88   45.2   2.0     W   0.33   6.0     W   48.6   48.8   48.8   45.6  30.260  0.00  0.00     6     0.09      7     0.0  0.00   0.0   0.114   0.000   69.3    50   49.9   67.8   9.26  .0750    0.000   203    7    100.0   10 
 5/19/24  6:10a   48.4   48.6   48.4    89   45.3   3.0     W   0.50   7.0     W   47.8   48.6   48.0   45.0  30.266  0.00  0.00    14     0.20     16     0.0  0.00   0.0   0.115   0.000   69.4    50   49.9   67.9   9.26  .0750    0.000   204    7    100.0   10 
 5/19/24  6:20a   48.3   48.5   48.2    88   44.9   1.0   ESE   0.17   3.0   ENE   48.3   48.4   48.4   45.4  30.269  0.00  0.00    17     0.24     18     0.0  0.00   0.0   0.116   0.000   69.6    50   50.1   68.0   9.26  .0749    0.000   203    7    100.0   10 
 5/19/24  6:30a   47.8   48.3   47.8    88   44.4   1.0   ESE   0.17   3.0   ESE   47.8   47.9   47.9   45.0  30.272  0.00  0.00    23     0.33     28     0.0  0.00   0.0   0.119   0.000   69.7    50   50.2   68.1   9.26  .0749    0.000   202    7    100.0   10 
 5/19/24  6:40a   47.4   47.8   47.4    88   44.0   1.0     E   0.17   4.0     E   47.4   47.5   47.5   44.8  30.274  0.00  0.00    32     0.46     33     0.0  0.00   0.0   0.122   0.000   69.8    50   50.3   68.2   9.25  .0749    0.000   205    7    100.0   10 
 5/19/24  6:50a   47.6   47.7   47.4    89   44.5   0.0     E   0.00   1.0     E   47.6   47.8   47.8   45.1  30.277  0.00  0.00    28     0.40     32     0.0  0.00   0.0   0.121   0.000   70.0    50   50.5   68.3   9.25  .0749    0.000   203    7    100.0   10 
 5/19/24  7:00a   47.9   47.9   47.6    89   44.8   0.0   ---   0.00   0.0   ---   47.9   48.1   48.1   45.4  30.283  0.00  0.00    28     0.40     32     0.0  0.00   0.0   0.119   0.000   70.1    50   50.6   68.4   9.25  .0749    0.001   202    7    100.0   10 
 5/19/24  7:10a   48.3   48.3   47.9    90   45.5   0.0     E   0.00   1.0     E   48.3   48.5   48.5   46.0  30.288  0.01  0.00    36     0.52     42     0.0  0.00   0.0   0.116   0.000   70.2    50   50.7   68.6   9.25  .0749    0.000   204    7    100.0   10 
 5/19/24  7:20a   48.7   48.7   48.3    90   45.9   0.0     E   0.00   1.0     E   48.7   49.0   49.0   46.9  30.290  0.01  0.09    57     0.82     67     0.0  0.00   0.0   0.113   0.000   70.4    50   50.9   68.8   9.25  .0749    0.000   204    7    100.0   10 
 5/19/24  7:30a   49.2   49.2   48.7    91   46.7   0.0     E   0.00   1.0     E   49.2   49.5   49.5   50.6  30.296  0.01  0.08    72     1.03     76     0.0  0.00   0.0   0.110   0.000   70.5    50   51.0   68.9   9.25  .0749    0.000   204    7    100.0   10 
 5/19/24  7:40a   49.5   49.5   49.2    91   47.0   0.0     E   0.00   2.0     E   49.5   49.8   49.8   50.9  30.294  0.00  0.04    71     1.02     79     0.0  0.00   0.0   0.108   0.000   70.7    50   51.1   69.2   9.25  .0748    0.000   203    7    100.0   10 
 5/19/24  7:50a   49.7   49.7   49.5    91   47.2   0.0     E   0.00   2.0     E   49.7   50.0   50.0   52.1  30.289  0.00  0.00    96     1.38    114     0.0  0.00   0.0   0.106   0.000   70.8    50   51.2   69.3   9.25  .0748    0.000   200    7    100.0   10 
 5/19/24  8:00a   49.9   49.9   49.6    91   47.4   1.0     E   0.17   3.0   ENE   49.9   50.2   50.2   53.2  30.290  0.00  0.00   122     1.75    128     0.0  0.00   0.0   0.105   0.000   71.0    50   51.4   69.6   9.25  .0748    0.001   205    7    100.0   10 
 5/19/24  8:10a   50.1   50.1   49.9    92   47.9   2.0     E   0.33   3.0     E   50.1   50.5   50.5   54.1  30.290  0.00  0.00   141     2.02    151     0.3  0.02   0.5   0.103   0.000   70.9    50   51.3   69.5   9.25  .0748    0.000   203    7    100.0   10 
 5/19/24  8:20a   50.2   50.3   50.1    92   48.0   1.0    NE   0.17   3.0     E   50.2   50.6   50.6   54.4  30.296  0.00  0.00   149     2.14    162     0.4  0.03   0.5   0.103   0.000   71.0    50   51.4   69.6   9.25  .0748    0.000   204    7    100.0   10 
 5/19/24  8:30a   50.2   50.3   50.1    92   48.0   1.0   ENE   0.17   2.0   ENE   50.2   50.6   50.6   54.2  30.299  0.00  0.00   150     2.15    185     0.5  0.04   0.8   0.103   0.000   71.0    50   51.4   69.6   9.25  .0748    0.000   201    7    100.0   10 
 5/19/24  8:40a   49.6   50.2   49.6    91   47.1   2.0     N   0.33   3.0    NE   49.6   49.9   49.9   55.0  30.303  0.00  0.00   196     2.81    204     0.9  0.06   0.9   0.107   0.000   71.0    50   51.4   69.6   9.25  .0748    0.000   204    7    100.0   10 
 5/19/24  8:50a   50.3   50.3   49.6    92   48.1   2.0     N   0.33   4.0    NE   50.3   50.7   50.7   58.1  30.303  0.00  0.00   284     4.07    454     1.1  0.08   1.3   0.102   0.000   71.0    50   51.4   69.6   9.25  .0748    0.000   203    7    100.0   10 
 5/19/24  9:00a   50.6   50.6   50.3    93   48.7   3.0     N   0.50   4.0     N   50.4   51.0   50.8   59.7  30.305  0.00  0.00   370     5.30    677     1.3  0.09   1.5   0.100   0.000   71.0    50   51.4   69.6   9.25  .0748    0.004   202    7    100.0   10 
 5/19/24  9:10a   51.3   51.3   50.6    93   49.3   2.0     E   0.33   4.0   NNE   51.3   51.6   51.6   60.2  30.302  0.00  0.00   358     5.13    691     1.3  0.09   1.6   0.095   0.000   71.0    50   51.4   69.6   9.25  .0748    0.000   205    7    100.0   10 
 5/19/24  9:20a   51.9   51.9   51.3    92   49.6   2.0     E   0.33   4.0   ESE   51.9   52.1   52.1   58.7  30.301  0.00  0.00   278     3.99    313     1.2  0.09   1.3   0.091   0.000   71.0    50   51.4   69.6   9.25  .0748    0.000   203    7    100.0   10 
 5/19/24  9:30a   52.3   52.3   51.9    92   50.0   2.0     E   0.33   4.0     E   52.3   52.5   52.5   59.3  30.304  0.00  0.00   295     4.23    410     1.4  0.10   1.7   0.088   0.000   71.0    50   51.4   69.6   9.25  .0748    0.000   201    7    100.0   10 
 5/19/24  9:40a   53.2   53.2   52.3    92   50.9   1.0     E   0.17   4.0     E   53.2   53.4   53.4   63.3  30.304  0.00  0.00   466     6.68    668     2.0  0.14   2.3   0.082   0.000   71.0    50   51.4   69.6   9.25  .0748    0.000   203    7    100.0   10 
 5/19/24  9:50a   53.5   53.5   53.2    89   50.3   1.0     E   0.17   5.0   ENE   53.5   53.6   53.6   63.4  30.305  0.00  0.00   469     6.72    659     2.1  0.15   2.5   0.080   0.000   71.1    50   51.5   69.8   9.25  .0748    0.000   203    7    100.0   10 
 5/19/24 10:00a   51.7   53.5   51.7    89   48.6   4.0   WNW   0.67   8.0   WNW   50.8   51.9   51.0   66.8  30.306  0.00  0.00   847    12.14    891     2.7  0.19   2.8   0.092   0.000   71.0    50   51.4   69.6   9.25  .0748    0.009   202    7    100.0   10 
 5/19/24 10:10a   50.7   51.7   50.6    91   48.2   3.0   WNW   0.50   8.0   WNW   50.5   51.0   50.8   53.2  30.309  0.00  0.00   155     2.22    172     2.0  0.14   3.0   0.099   0.000   71.0    50   51.4   69.6   9.25  .0748    0.000   204    7    100.0   10 
 5/19/24 10:20a   51.2   51.2   50.6    92   49.0   4.0   WNW   0.67   7.0   WNW   50.2   51.5   50.5   63.7  30.311  0.00  0.00   790    11.32    793     3.1  0.22   3.2   0.096   0.000   71.0    50   51.4   69.6   9.25  .0748    0.000   201    7    100.0   10 
 5/19/24 10:30a   51.4   51.4   51.0    91   48.9   4.0   WNW   0.67   8.0   WNW   50.5   51.6   50.7   64.1  30.311  0.00  0.00   834    11.96    872     3.4  0.24   3.4   0.094   0.000   70.9    50   51.3   69.5   9.25  .0748    0.000   205    7    100.0   10 
 5/19/24 10:40a   51.3   51.5   51.2    91   48.8   4.0   WNW   0.67   7.0   WNW   50.4   51.5   50.6   62.0  30.315  0.00  0.00   754    10.81    849     3.3  0.24   3.7   0.095   0.000   71.0    50   51.4   69.6   9.25  .0748    0.000   203    7    100.0   10 
 5/19/24 10:50a   51.7   51.7   51.2    91   49.2   4.0   WNW   0.67   7.0     W   50.8   51.9   51.0   63.8  30.315  0.00  0.00   854    12.24    882     3.8  0.27   4.0   0.092   0.000   71.0    50   51.4   69.6   9.25  .0748    0.000   201    7    100.0   10 
 5/19/24 11:00a   51.5   51.8   51.5    90   48.7   6.0   WNW   1.00   8.0   WNW   49.5   51.7   49.7   61.0  30.316  0.00  0.00   800    11.47    928     3.9  0.28   4.2   0.094   0.000   71.1    50   51.5   69.8   9.25  .0748    0.013   203    7    100.0   10 
 5/19/24 11:10a   51.9   51.9   51.4    91   49.4   6.0   WNW   1.00   9.0   WNW   49.9   52.1   50.1   61.1  30.316  0.00  0.00   801    11.48    868     4.0  0.29   4.2   0.091   0.000   71.1    50   51.5   69.8   9.25  .0748    0.000   204    7    100.0   10 
 5/19/24 11:20a   52.0   52.0   51.7    91   49.5   5.0   WNW   0.83   8.0   WNW   50.6   52.2   50.8   60.7  30.318  0.00  0.00   760    10.89    847     4.1  0.29   4.6   0.090   0.000   71.1    50   51.5   69.8   9.25  .0748    0.000   201    7    100.0   10 
 5/19/24 11:30a   52.9   53.0   52.0    91   50.3   3.0   WNW   0.50   6.0   WNW   52.9   53.0   53.0   64.0  30.322  0.00  0.00   839    12.03    946     4.4  0.31   4.7   0.084   0.000   71.2    50   51.6   69.9   9.25  .0748    0.000   202    7    100.0   10 
 5/19/24 11:40a   53.4   53.4   52.9    90   50.5   4.0   NNW   0.67   6.0   NNW   52.8   53.5   52.9   66.4  30.322  0.00  0.00  1014    14.54   1053     4.8  0.34   5.0   0.081   0.000   71.2    50   51.6   69.9   9.25  .0748    0.000   204    7    100.0   10 
 5/19/24 11:50a   53.1   53.4   53.0    89   49.9   5.0   NNW   0.83   8.0     N   51.8   53.2   51.9   64.6  30.323  0.00  0.00   982    14.08   1021     4.9  0.35   5.1   0.083   0.000   71.3    50   51.7   70.1   9.25  .0748    0.000   204    7    100.0   10 
 5/19/24 12:00p   53.2   53.2   52.9    89   50.0   5.0     N   0.83   9.0   NNW   51.9   53.3   52.0   64.6  30.324  0.00  0.00   994    14.25   1042     5.0  0.36   5.3   0.082   0.000   71.3    50   51.7   70.1   9.25  .0748    0.017   203    7    100.0   10 
 5/19/24 12:10p   53.5   53.5   53.1    89   50.3   4.0     N   0.67   8.0   NNW   52.9   53.6   53.0   64.5  30.324  0.00  0.00   940    13.48    958     5.1  0.36   5.2   0.080   0.000   71.4    50   51.8   70.2   9.25  .0748    0.000   203    7    100.0   10 
 5/19/24 12:20p   53.3   53.7   53.2    88   49.8   5.0     N   0.83   9.0    NW   52.1   53.3   52.1   63.3  30.327  0.00  0.00   936    13.42    937     5.2  0.37   5.3   0.081   0.000   71.4    50   51.8   70.2   9.25  .0748    0.000   205    7    100.0   10 
 5/19/24 12:30p   52.8   53.3   52.7    88   49.3   6.0     N   1.00  10.0   NNW   51.0   52.8   51.0   62.1  30.329  0.00  0.00   937    13.43    942     5.3  0.38   5.3   0.085   0.000   71.5    50   51.9   70.3   9.25  .0748    0.000   201    7    100.0   10 
 5/19/24 12:40p   52.8   52.8   52.3    89   49.6   6.0   NNW   1.00  11.0    NW   51.0   52.9   51.1   62.1  30.327  0.00  0.00   941    13.49    944     5.4  0.39   5.4   0.085   0.000   71.5    50   51.9   70.3   9.25  .0748    0.000   202    7    100.0   10 
 5/19/24 12:50p   52.7   52.8   52.6    88   49.2   6.0   NNW   1.00  10.0   NNW   50.8   52.8   50.9   61.9  30.327  0.00  0.00   946    13.56    949     5.4  0.39   5.5   0.085   0.000   71.5    50   51.9   70.3   9.25  .0748    0.000   202    7    100.0   10 
 5/19/24  1:00p   53.5   53.5   52.6    88   50.0   5.0   NNW   0.83   9.0     N   52.3   53.5   52.3   63.3  30.326  0.00  0.00   946    13.56    947     5.5  0.39   5.5   0.080   0.000   71.6    50   52.0   70.5   9.25  .0747    0.018   203    7    100.0   10 
 5/19/24  1:10p   53.9   53.9   53.5    88   50.4   5.0   NNW   0.83   9.0     N   52.8   53.9   52.8   63.7  30.328  0.00  0.00   948    13.59    949     5.5  0.39   5.6   0.077   0.000   71.6    50   52.0   70.5   9.25  .0747    0.000   203    7    100.0   10 
 5/19/24  1:20p   54.0   54.0   53.6    88   50.5   5.0   NNW   0.83   8.0     N   52.9   54.0   52.9   63.8  30.329  0.00  0.00   947    13.58    949     5.6  0.40   5.6   0.076   0.000   71.7    50   52.1   70.6   9.25  .0747    0.000   203    7    100.0   10 
 5/19/24  1:30p   54.4   54.4   54.1    86   50.3   5.0   NNW   0.83   9.0   NNW   53.4   54.3   53.3   64.2  30.328  0.00  0.00   943    13.52    946     5.6  0.40   5.6   0.074   0.000   71.7    50   52.1   70.6   9.25  .0747    0.000   201    7    100.0   10 
 5/19/24  1:40p   54.8   54.9   54.4    86   50.7   5.0   NNW   0.83   9.0   NNE   53.9   54.7   53.8   64.7  30.329  0.00  0.00   941    13.49    944     5.5  0.39   5.6   0.071   0.000   71.8    50   52.2   70.8   9.25  .0747    0.000   204    7    100.0   10 
 5/19/24  1:50p   54.9   54.9   54.8    85   50.5   5.0   NNW   0.83   9.0   NNW   54.0   54.8   53.9   64.7  30.330  0.00  0.00   934    13.39    939     5.5  0.39   5.5   0.070   0.000   71.8    50   52.2   70.8   9.25  .0747    0.000   202    7    100.0   10 
 5/19/24  2:00p   54.4   55.0   54.4    84   49.7   6.0   NNW   1.00   9.0     N   52.9   54.3   52.8   63.5  30.328  0.00  0.00   922    13.22    930     5.4  0.39   5.4   0.074   0.000   71.8    50   52.2   70.8   9.25  .0747    0.018   204    7    100.0   10 
 5/19/24  2:10p   54.4   54.5   54.2    85   50.0   6.0   NNW   1.00  10.0     N   52.9   54.3   52.8   63.5  30.330  0.00  0.00   913    13.09    918     5.3  0.38   5.3   0.074   0.000   71.9    50   52.2   70.9   9.25  .0747    0.000   202    7    100.0   10 
 5/19/24  2:20p   54.4   54.5   54.2    85   50.0   6.0   NNW   1.00   9.0   NNW   52.9   54.3   52.8   63.6  30.328  0.00  0.00   909    13.03    912     5.2  0.37   5.3   0.074   0.000   71.9    50   52.2   70.9   9.25  .0747    0.000   202    7    100.0   10 
 5/19/24  2:30p   54.6   54.7   54.4    85   50.2   6.0   NNW   1.00  10.0     N   53.1   54.5   53.0   63.8  30.329  0.00  0.00   898    12.87    904     5.1  0.36   5.1   0.072   0.000   72.0    50   52.3   71.1   9.25  .0747    0.000   201    7    100.0   10 
 5/19/24  2:40p   55.3   55.3   54.6    85   50.9   6.0   NNW   1.00  10.0   NNW   54.0   55.2   53.9   64.7  30.327  0.00  0.00   883    12.66    889     5.0  0.36   5.0   0.067   0.000   72.0    50   52.3   71.1   9.25  .0747    0.000   200    7    100.0   10 
 5/19/24  2:50p   55.8   55.8   55.3    85   51.4   5.0   NNW   0.83  10.0   NNW   55.1   55.7   55.0   65.9  30.326  0.00  0.00   871    12.49    877     4.8  0.34   4.9   0.064   0.000   72.0    50   52.3   71.1   9.25  .0747    0.000   204    7    100.0   10 
 5/19/24  3:00p   56.3   56.4   55.9    83   51.2   5.0     N   0.83  11.0   NNW   55.6   56.1   55.4   66.4  30.325  0.00  0.00   857    12.29    863     4.7  0.34   4.7   0.060   0.000   72.0    50   52.3   71.1   9.25  .0747    0.018   205    7    100.0   10 
 5/19/24  3:10p   56.5   56.5   56.1    83   51.4   6.0   NNW   1.00  10.0    NE   55.4   56.3   55.2   66.2  30.325  0.00  0.00   841    12.06    849     4.5  0.32   4.6   0.059   0.000   72.0    50   52.3   71.1   9.25  .0747    0.000   202    7    100.0   10 
 5/19/24  3:20p   57.1   57.2   56.5    82   51.7   6.0     N   1.00  11.0     N   56.1   56.9   55.9   67.0  30.325  0.00  0.00   825    11.83    831     4.3  0.31   4.4   0.055   0.000   72.1    50   52.4   71.2   9.25  .0746    0.000   203    7    100.0   10 
 5/19/24  3:30p   56.7   57.2   56.7    81   50.9   6.0     N   1.00  11.0   NNW   55.6   56.4   55.3   66.3  30.324  0.00  0.00   806    11.55    814     4.1  0.29   4.2   0.058   0.000   72.1    50   52.4   71.2   9.25  .0746    0.000   205    7    100.0   10 
 5/19/24  3:40p   56.7   56.8   56.6    82   51.3   6.0     N   1.00  10.0     N   55.6   56.5   55.4   66.6  30.322  0.00  0.00   788    11.30    798     4.0  0.29   4.0   0.058   0.000   72.1    50   52.4   71.2   9.25  .0746    0.000   202    7    100.0   10 
 5/19/24  3:50p   57.1   57.3   56.8    82   51.7   6.0     N   1.00  10.0     N   56.1   56.9   55.9   67.1  30.319  0.00  0.00   769    11.02    779     3.8  0.27   3.8   0.055   0.000   72.2    50   52.5   71.4   9.25  .0746    0.000   203    7    100.0   10 
 5/19/24  4:00p   56.1   57.2   56.1    82   50.7   7.0     N   1.17  12.0     N   54.5   55.9   54.3   65.3  30.317  0.00  0.00   749    10.74    759     3.5  0.25   3.6   0.062   0.000   72.2    50   52.5   71.4   9.25  .0746    0.016   203    7    100.0   10 
 5/19/24  4:10p   56.9   57.0   56.2    82   51.5   6.0     N   1.00  11.0     N   55.9   56.7   55.7   67.0  30.314  0.00  0.00   726    10.41    738     3.3  0.24   3.4   0.056   0.000   72.2    50   52.5   71.4   9.25  .0746    0.000   203    7    100.0   10 
 5/19/24  4:20p   56.2   57.0   56.2    82   50.8   8.0     N   1.33  12.0    NE   53.9   56.0   53.7   64.3  30.314  0.00  0.00   700    10.03    710     3.1  0.22   3.2   0.061   0.000   72.2    50   52.5   71.4   9.25  .0746    0.000   203    7    100.0   10 
 5/19/24  4:30p   56.3   56.3   56.0    82   50.9   9.0   NNE   1.50  14.0     N   53.3   56.1   53.1   63.3  30.315  0.00  0.00   674     9.66    687     2.8  0.20   2.9   0.060   0.000   72.2    50   52.5   71.4   9.25  .0746    0.000   201    7    100.0   10 
 5/19/24  4:40p   56.1   56.4   56.0    82   50.7   9.0     N   1.50  15.0    NE   53.1   55.9   52.9   63.1  30.314  0.00  0.00   649     9.30    661     2.6  0.19   2.7   0.062   0.000   72.2    50   52.5   71.4   9.25  .0746    0.000   201    7    100.0   10 
 5/19/24  4:50p   55.9   56.2   55.7    82   50.5  10.0     N   1.67  14.0   NNE   52.2   55.7   52.0   61.9  30.312  0.00  0.00   624     8.95    636     2.4  0.17   2.5   0.063   0.000   72.2    50   52.5   71.4   9.25  .0746    0.000   205    7    100.0   10 
 5/19/24  5:00p   55.8   56.1   55.8    82   50.4  10.0   NNE   1.67  16.0     N   52.1   55.6   51.9   61.7  30.310  0.00  0.00   594     8.52    608     2.2  0.16   2.3   0.064   0.000   72.2    50   52.5   71.4   9.25  .0746    0.014   202    7    100.0   10 
 5/19/24  5:10p   56.1   56.1   55.8    82   50.7  10.0     N   1.67  14.0     N   52.4   55.9   52.2   62.0  30.310  0.00  0.00   566     8.11    577     2.0  0.14   2.1   0.062   0.000   72.2    50   52.5   71.4   9.25  .0746    0.000   203    7    100.0   10 
 5/19/24  5:20p   55.9   56.0   55.8    83   50.8  10.0     N   1.67  14.0   NNE   52.2   55.7   52.0   61.8  30.311  0.00  0.00   540     7.74    552     1.8  0.13   1.9   0.063   0.000   72.2    50   52.5   71.4   9.25  .0746    0.000   204    7    100.0   10 
 5/19/24  5:30p   55.8   55.9   55.6    83   50.7   9.0     N   1.50  14.0   NNE   52.8   55.6   52.6   62.7  30.309  0.00  0.00   513     7.35    524     1.6  0.11   1.7   0.064   0.000   72.2    50   52.5   71.4   9.25  .0746    0.000   204    7    100.0   10 
 5/19/24  5:40p   55.8   55.9   55.7    83   50.7   9.0     N   1.50  14.0     N   52.8   55.6   52.6   62.6  30.310  0.00  0.00   486     6.97    499     1.5  0.11   1.5   0.064   0.000   72.2    50   52.5   71.4   9.25  .0746    0.000   199    7    100.0   10 
 5/19/24  5:50p   55.4   55.8   55.4    82   50.0   9.0     N   1.50  13.0    NE   52.3   55.2   52.1   62.0  30.311  0.00  0.00   456     6.54    469     1.3  0.09   1.4   0.067   0.000   72.2    50   52.5   71.4   9.25  .0746    0.000   204    7    100.0   10 
 5/19/24  6:00p   55.5   55.5   55.2    83   50.4   8.0     N   1.33  13.0     N   53.1   55.3   52.9   62.9  30.313  0.00  0.00   423     6.06    438     1.1  0.08   1.2   0.066   0.000   72.2    50   52.5   71.4   9.25  .0746    0.011   201    7    100.0   10 
 5/19/24  6:10p   55.8   55.8   55.5    83   50.7   8.0   NNE   1.33  14.0     N   53.5   55.6   53.3   63.0  30.311  0.00  0.00   392     5.62    406     1.0  0.07   1.0   0.064   0.000   72.3    50   52.6   71.5   9.25  .0746    0.000   204    7    100.0   10 
 5/19/24  6:20p   55.4   55.8   55.4    82   50.0  10.0   NNE   1.67  16.0     N   51.6   55.2   51.4   60.0  30.308  0.00  0.00   362     5.19    376     0.9  0.06   0.9   0.067   0.000   72.3    50   52.6   71.5   9.25  .0746    0.000   202    7    100.0   10 
 5/19/24  6:30p   55.4   55.6   55.4    82   50.0  10.0   NNE   1.67  15.0   NNE   51.6   55.2   51.4   59.6  30.307  0.00  0.00   330     4.73    345     0.7  0.05   0.8   0.067   0.000   72.3    50   52.6   71.5   9.25  .0746    0.000   204    7    100.0   10 
 5/19/24  6:40p   55.3   55.4   55.1    82   49.9  10.0   NNE   1.67  16.0   NNW   51.5   55.1   51.3   58.9  30.306  0.00  0.00   298     4.27    311     0.6  0.04   0.7   0.067   0.000   72.3    50   52.6   71.5   9.25  .0746    0.000   201    7    100.0   10 
 5/19/24  6:50p   55.3   55.5   55.3    82   49.9   9.0   NNE   1.50  15.0   NNE   52.2   55.1   52.0   59.0  30.303  0.00  0.00   265     3.80    279     0.5  0.04   0.5   0.067   0.000   72.3    50   52.6   71.5   9.25  .0746    0.000   204    7    100.0   10 
 5/19/24  7:00p   55.4   55.4   55.1    82   50.0   9.0   NNE   1.50  14.0    NW   52.3   55.2   52.1   58.2  30.304  0.00  0.00   229     3.28    244     0.0  0.00   0.0   0.067   0.000   72.4    50   52.7   71.7   9.25  .0745    0.007   203    7    100.0   10 
 5/19/24  7:10p   55.4   55.5   55.4    82   50.0   9.0   NNE   1.50  14.0    NE   52.3   55.2   52.1   57.1  30.303  0.00  0.00   193     2.77    207     0.0  0.00   0.0   0.067   0.000   72.4    50   52.7   71.7   9.25  .0745    0.000   202    7    100.0   10 
 5/19/24  7:20p   55.1   55.4   55.1    82   49.7   9.0   NNE   1.50  13.0   ENE   51.9   54.9   51.7   51.9  30.301  0.00  0.00   155     2.22    174     0.0  0.00   0.0   0.069   0.000   72.4    50   52.7   71.7   9.25  .0745    0.000   204    7    100.0   10 
 5/19/24  7:30p   55.0   55.2   54.9    83   49.9   7.0   NNE   1.17  13.0   NNE   53.2   54.8   53.0   52.4  30.302  0.00  0.00   119     1.71    125     0.0  0.00   0.0   0.069   0.000   72.5    50   52.8   71.8   9.25  .0745    0.000   203    7    100.0   10 
 5/19/24  7:40p   55.1   55.2   55.0    83   50.0   8.0    NE   1.33  14.0    NE   52.6   54.9   52.4   51.4  30.303  0.00  0.00    91     1.30    104     0.0  0.00   0.0   0.069   0.000   72.5    50   52.8   71.8   9.25  .0745    0.000   202    7    100.0   10 
 5/19/24  7:50p   54.4   55.1   54.4    82   49.0   9.0   NNE   1.50  14.0   NNE   51.1   54.2   50.9   49.3  30.303  0.00  0.00    66     0.95     77     0.0  0.00   0.0   0.074   0.000   72.6    50   52.9   71.9   9.25  .0745    0.000   199    7    100.0   10 
 5/19/24  8:00p   54.0   54.4   53.9    82   48.6   9.0    NE   1.50  14.0   ENE   50.6   53.8   50.4   48.4  30.304  0.00  0.00    44     0.63     53     0.0  0.00   0.0   0.076   0.000   72.7    50   53.0   72.1   9.25  .0745    0.003   204    7    100.0   10 
 5/19/24  8:10p   53.4   54.0   53.4    83   48.4   9.0   NNE   1.50  16.0   NNE   49.9   53.2   49.7   47.3  30.306  0.00  0.00    26     0.37     35     0.0  0.00   0.0   0.081   0.000   72.7    50   53.0   72.1   9.25  .0745    0.000   202    7    100.0   10 
 5/19/24  8:20p   53.0   53.4   52.9    83   48.0   7.0    NE   1.17  14.0   NNE   50.8   52.8   50.6   47.7  30.304  0.00  0.00    16     0.23     18     0.0  0.00   0.0   0.083   0.000   72.7    50   53.0   72.1   9.25  .0745    0.000   203    7    100.0   10 
 5/19/24  8:30p   52.4   52.9   52.4    83   47.4   7.0    NE   1.17  13.0    NE   50.1   52.3   50.0   47.0  30.306  0.00  0.00    11     0.16     12     0.0  0.00   0.0   0.087   0.000   72.7    50   53.0   72.1   9.25  .0745    0.000   204    7    100.0   10 
 5/19/24  8:40p   52.2   52.4   52.1    83   47.2   7.0    NE   1.17  15.0    NE   49.8   52.1   49.7   46.6  30.308  0.00  0.00     6     0.09      7     0.0  0.00   0.0   0.089   0.000   72.6    50   52.9   71.9   9.25  .0745    0.000   203    7    100.0   10 
 5/19/24  8:50p   51.8   52.1   51.8    83   46.8   7.0    NE   1.17  15.0    NE   49.4   51.7   49.3   46.0  30.309  0.00  0.00     0     0.00      0     0.0  0.00   0.0   0.092   0.000   72.6    50   52.9   71.9   9.25  .0745    0.000   203    7    100.0   10 
 5/19/24  9:00p   51.7   51.9   51.7    83   46.7   9.0    NE   1.50  19.0   NNE   47.9   51.6   47.8   44.8  30.313  0.00  0.00     0     0.00      0     0.0  0.00   0.0   0.092   0.000   72.5    50   52.8   71.8   9.25  .0745    0.001   201    7    100.0   10 
 5/19/24  9:10p   51.6   51.7   51.6    82   46.3   8.0    NE   1.33  16.0   NNE   48.4   51.5   48.3   45.2  30.313  0.00  0.00     0     0.00      0     0.0  0.00   0.0   0.093   0.000   72.5    50   52.8   71.8   9.25  .0745    0.000   201    7    100.0   10 
 5/19/24  9:20p   51.4   51.6   51.4    82   46.1   7.0    NE   1.17  13.0   NNE   48.9   51.3   48.8   45.5  30.314  0.00  0.00     0     0.00      0     0.0  0.00   0.0   0.094   0.000   72.4    50   52.7   71.7   9.25  .0746    0.000   204    7    100.0   10 
 5/19/24  9:30p   51.2   51.4   51.2    83   46.2   7.0    NE   1.17  15.0    NE   48.6   51.2   48.6   45.3  30.314  0.00  0.00     0     0.00      0     0.0  0.00   0.0   0.096   0.000   72.3    50   52.6   71.5   9.25  .0746    0.000   203    7    100.0   10 
 5/19/24  9:40p   51.1   51.3   51.1    83   46.1   6.0    NE   1.00  11.0    NE   49.0   51.1   49.0   45.7  30.317  0.00  0.00     0     0.00      0     0.0  0.00   0.0   0.097   0.000   72.3    50   52.6   71.5   9.25  .0746    0.000   203    7    100.0   10 
 5/19/24  9:50p   50.9   51.1   50.9    83   45.9   6.0    NE   1.00  13.0    NE   48.8   50.9   48.8   45.5  30.318  0.00  0.00     0     0.00      0     0.0  0.00   0.0   0.098   0.000   72.2    50   52.5   71.4   9.25  .0746    0.000   202    7    100.0   10 
 5/19/24 10:00p   50.8   50.9   50.7    83   45.8   5.0    NE   0.83  10.0     E   49.2   50.8   49.2   45.9  30.318  0.00  0.00     0     0.00      0     0.0  0.00   0.0   0.099   0.000   72.1    50   52.4   71.2   9.25  .0746    0.001   205    7    100.0   10 
 5/19/24 10:10p   50.8   50.8   50.7    83   45.8   6.0    NE   1.00  12.0   NNE   48.7   50.8   48.7   45.4  30.322  0.00  0.00     0     0.00      0     0.0  0.00   0.0   0.099   0.000   72.1    50   52.4   71.2   9.25  .0746    0.000   202    7    100.0   10 
 5/19/24 10:20p   50.6   50.8   50.6    83   45.6   5.0    NE   0.83  10.0   NNE   48.9   50.6   48.9   45.6  30.322  0.00  0.00     0     0.00      0     0.0  0.00   0.0   0.100   0.000   72.0    50   52.3   71.1   9.25  .0747    0.000   201    7    100.0   10 
 5/19/24 10:30p   50.4   50.6   50.4    83   45.4   5.0    NE   0.83  10.0     E   48.7   50.4   48.7   45.4  30.323  0.00  0.00     0     0.00      0     0.0  0.00   0.0   0.101   0.000   71.9    50   52.2   70.9   9.25  .0747    0.000   204    7    100.0   10 
 5/19/24 10:40p   50.3   50.4   50.3    83   45.3   4.0    NE   0.67  10.0   ENE   49.2   50.3   49.2   45.9  30.325  0.00  0.00     0     0.00      0     0.0  0.00   0.0   0.102   0.000   71.8    50   52.2   70.8   9.25  .0747    0.000   204    7    100.0   10 
 5/19/24 10:50p   50.2   50.3   50.1    83   45.2   4.0    NE   0.67  10.0    NE   49.1   50.2   49.1   45.8  30.322  0.00  0.00     0     0.00      0     0.0  0.00   0.0   0.103   0.000   71.7    49   51.5   70.5   9.05  .0747    0.000   202    7    100.0   10 
 5/19/24 11:00p   50.1   50.2   50.0    83   45.1   5.0    NE   0.83  12.0   NNE   48.3   50.1   48.3   45.0  30.324  0.00  0.00     0     0.00      0     0.0  0.00   0.0   0.103   0.000   71.5    49   51.3   70.3   9.05  .0748    0.001   204    7    100.0   10 
 5/19/24 11:10p   49.9   50.1   49.9    83   44.9   4.0    NE   0.67  11.0     N   48.8   50.0   48.9   45.6  30.325  0.00  0.00     0     0.00      0     0.0  0.00   0.0   0.105   0.000   71.3    49   51.1   70.0   9.05  .0748    0.000   205    7    100.0   10 
 5/19/24 11:20p   49.8   49.9   49.8    83   44.8   4.0   ENE   0.67  11.0   ENE   48.7   49.9   48.8   45.5  30.324  0.00  0.00     0     0.00      0     0.0  0.00   0.0   0.106   0.000   71.3    49   51.1   70.0   9.05  .0748    0.000   203    7    100.0   10 
 5/19/24 11:30p   49.9   49.9   49.8    83   44.9   5.0   ENE   0.83  11.0    NE   48.1   50.0   48.2   44.9  30.325  0.00  0.00     0     0.00      0     0.0  0.00   0.0   0.105   0.000   71.2    49   51.1   69.8   9.05  .0748    0.000   203    7    100.0   10 
 5/19/24 11:40p   49.9   50.0   49.9    83   44.9   5.0   ENE   0.83  12.0   NNE   48.1   50.0   48.2   44.9  30.325  0.00  0.00     0     0.00      0     0.0  0.00   0.0   0.105   0.000   71.1    49   51.0   69.6   9.05  .0748    0.000   203    7    100.0   10 
 5/19/24 11:50p   50.0   50.0   49.9    83   45.0   5.0    NE   0.83  11.0    NE   48.2   50.1   48.3   45.0  30.322  0.00  0.00     0     0.00      0     0.0  0.00   0.0   0.104   0.000   71.0    49   50.9   69.5   9.05  .0749    0.000   204    7    100.0   10 
 5/20/24 12:00a   49.8   50.0   49.8    83   44.8   3.0    NE   0.50   7.0    NE   49.5   49.9   49.6   46.3  30.322  0.00  0.00     0     0.00      0     0.0  0.00   0.0   0.106   0.000   70.9    49   50.8   69.4   9.05  .0749    0.001   203    7    100.0   10 
 5/20/24 12:10a   49.6   49.8   49.6    83   44.6   3.0   ENE   0.50   7.0    NE   49.2   49.6   49.2   45.9  30.324  0.00  0.00     0     0.00      0     0.0  0.00   0.0   0.107   0.000   70.8    49   50.7   69.2   9.05  .0749    0.000   203    7    100.0   10 
 5/20/24 12:20a   49.7   49.7   49.6    83   44.7   4.0   ENE   0.67   9.0    NE   48.5   49.7   48.5   45.2  30.325  0.00  0.00     0     0.00      0     0.0  0.00   0.0   0.106   0.000   70.7    49   50.6   69.1   9.05  .0749    0.000   204    7    100.0   10 
 5/20/24 12:30a   49.8   49.8   49.6    83   44.8   5.0   ENE   0.83  11.0    NE   48.0   49.9   48.1   44.8  30.325  0.00  0.00     0     0.00      0     0.0  0.00   0.0   0.106   0.000   70.7    49   50.6   69.1   9.05  .0749    0.000   203    7    100.0   10 
 5/20/24 12:40a   49.9   49.9   49.8    83   44.9   5.0   ENE   0.83  12.0    NE   48.1   50.0   48.2   44.9  30.325  0.00  0.00     0     0.00      0     0.0  0.00   0.0   0.105   0.000   70.5    49   50.4   68.9   9.05  .0749    0.000   203    7    100.0   10 
 5/20/24 12:50a   50.0   50.1   49.9    83   45.0   5.0   ENE   0.83  11.0    NE   48.2   50.1   48.3   45.0  30.324  0.00  0.00     0     0.00      0     0.0  0.00   0.0   0.104   0.000   70.4    49   50.3   68.7   9.05  .0750    0.000   202    7    100.0   10 
 5/20/24  1:00a   50.1   50.1   50.0    83   45.1   4.0   ENE   0.67  12.0    NE   49.0   50.1   49.0   45.7  30.323  0.00  0.00     0     0.00      0     0.0  0.00   0.0   0.103   0.000   70.3    49   50.2   68.6   9.05  .0750    0.001   203    7    100.0   10 
 5/20/24  1:10a   50.0   50.1   49.9    83   45.0   3.0   ENE   0.50   8.0   ENE   49.7   50.1   49.8   46.5  30.325  0.00  0.00     0     0.00      0     0.0  0.00   0.0   0.104   0.000   70.3    49   50.2   68.6   9.05  .0750    0.000   202    7    100.0   10 
 5/20/24  1:20a   49.9   49.9   49.8    83   44.9   4.0   ENE   0.67  10.0   ENE   48.8   50.0   48.9   45.6  30.318  0.00  0.00     0     0.00      0     0.0  0.00   0.0   0.105   0.000   70.2    49   50.1   68.5   9.05  .0750    0.000   203    7    100.0   10 
 5/20/24  1:30a   49.8   49.9   49.7    83   44.8   3.0   ENE   0.50   7.0    NE   49.5   49.9   49.6   46.3  30.315  0.00  0.00     0     0.00      0     0.0  0.00   0.0   0.106   0.000   70.1    49   50.0   68.3   9.05  .0750    0.000   203    7    100.0   10 
 5/20/24  1:40a   49.4   49.7   49.4    83   44.5   3.0   ENE   0.50   6.0     E   49.0   49.4   49.0   45.7  30.316  0.00  0.00     0     0.00      0     0.0  0.00   0.0   0.108   0.000   70.1    49   50.0   68.3   9.05  .0750    0.000   203    7    100.0   10 
 5/20/24  1:50a   49.2   49.4   49.1    83   44.3   3.0   ENE   0.50   8.0   ENE   48.7   49.2   48.7   45.4  30.316  0.00  0.00     0     0.00      0     0.0  0.00   0.0   0.110   0.000   70.1    49   50.0   68.3   9.05  .0750    0.000   201    7    100.0   10 
 5/20/24  2:00a   49.2   49.3   49.1    83   44.3   3.0   ENE   0.50   8.0   ENE   48.7   49.2   48.7   45.4  30.317  0.00  0.00     0     0.00      0     0.0  0.00   0.0   0.110   0.000   70.0    49   50.0   68.2   9.05  .0750    0.001   202    7    100.0   10 
 5/20/24  2:10a   49.1   49.2   49.1    83   44.2   3.0   ENE   0.50   8.0   ENE   48.6   49.1   48.6   45.3  30.315  0.00  0.00     0     0.00      0     0.0  0.00   0.0   0.110   0.000   70.0    49   50.0   68.2   9.05  .0750    0.000   201    7    100.0   10 
 5/20/24  2:20a   49.3   49.4   49.1    83   44.4   4.0   ENE   0.67   8.0   NNE   48.1   49.3   48.1   44.8  30.317  0.00  0.00     0     0.00      0     0.0  0.00   0.0   0.109   0.000   69.9    49   49.9   68.1   9.05  .0750    0.000   204    7    100.0   10 
 5/20/24  2:30a   49.2   49.3   49.1    83   44.3   3.0    NE   0.50  10.0    NE   48.7   49.2   48.7   45.4  30.314  0.00  0.00     0     0.00      0     0.0  0.00   0.0   0.110   0.000   69.8    49   49.8   68.1   9.05  .0750    0.000   203    7    100.0   10 
 5/20/24  2:40a   49.0   49.1   48.9    83   44.1   3.0   ENE   0.50   9.0    NE   48.5   49.0   48.5   45.2  30.312  0.00  0.00     0     0.00      0     0.0  0.00   0.0   0.111   0.000   69.7    49   49.7   68.0   9.06  .0750    0.000   202    7    100.0   10 
 5/20/24  2:50a   48.6   49.0   48.6    83   43.7   2.0   ENE   0.33   6.0   ESE   48.6   48.6   48.6   45.2  30.310  0.00  0.00     0     0.00      0     0.0  0.00   0.0   0.114   0.000   69.7    49   49.7   68.0   9.06  .0750    0.000   202    7    100.0   10 
 5/20/24  3:00a   48.3   48.7   48.3    83   43.4   2.0   ENE   0.33   7.0   ENE   48.3   48.3   48.3   44.9  30.312  0.00  0.00     0     0.00      0     0.0  0.00   0.0   0.116   0.000   69.7    49   49.7   68.0   9.06  .0750    0.001   205    7    100.0   10 
 5/20/24  3:10a   48.1   48.4   48.1    83   43.2   2.0   ENE   0.33   4.0   ENE   48.1   48.1   48.1   44.7  30.310  0.00  0.00     0     0.00      0     0.0  0.00   0.0   0.117   0.000   69.7    49   49.7   68.0   9.06  .0750    0.000   202    7    100.0   10 
 5/20/24  3:20a   47.9   48.1   47.9    83   43.0   2.0     E   0.33   4.0     E   47.9   47.9   47.9   44.5  30.308  0.00  0.00     0     0.00      0     0.0  0.00   0.0   0.119   0.000   69.6    49   49.6   67.9   9.06  .0751    0.000   202    7    100.0   10 
 5/20/24  3:30a   48.1   48.1   47.8    84   43.5   3.0   ENE   0.50   5.0     E   47.5   48.1   47.5   44.1  30.309  0.00  0.00     0     0.00      0     0.0  0.00   0.0   0.117   0.000   69.5    49   49.5   67.9   9.06  .0751    0.000   203    7    100.0   10 
 5/20/24  3:40a   48.5   48.5   48.1    83   43.6   4.0   ENE   0.67  10.0    NE   47.2   48.5   47.2   43.8  30.305  0.00  0.00     0     0.00      0     0.0  0.00   0.0   0.115   0.000   69.5    49   49.5   67.9   9.06  .0751    0.000   202    7    100.0   10 
 5/20/24  3:50a   48.6   48.7   48.5    83   43.7   4.0   ENE   0.67   9.0     E   47.3   48.6   47.3   43.9  30.302  0.00  0.00     0     0.00      0     0.0  0.00   0.0   0.114   0.000   69.3    49   49.3   67.7   9.06  .0751    0.000   202    7    100.0   10 
 5/20/24  4:00a   48.5   48.7   48.5    82   43.3   3.0   ENE   0.50  10.0   ENE   48.0   48.5   48.0   44.6  30.304  0.00  0.00     0     0.00      0     0.0  0.00   0.0   0.115   0.000   69.3    49   49.3   67.7   9.06  .0751    0.001   203    7    100.0   10 
 5/20/24  4:10a   48.2   48.5   48.2    82   43.0   2.0   ENE   0.33   7.0    NE   48.2   48.1   48.1   44.7  30.304  0.00  0.00     0     0.00      0     0.0  0.00   0.0   0.117   0.000   69.2    49   49.2   67.6   9.07  .0751    0.000   204    7    100.0   10 
 5/20/24  4:20a   47.9   48.1   47.8    82   42.7   2.0   ENE   0.33   6.0   ENE   47.9   47.8   47.8   44.4  30.304  0.00  0.00     0     0.00      0     0.0  0.00   0.0   0.119   0.000   69.2    49   49.2   67.6   9.07  .0751    0.000   204    7    100.0   10 
 5/20/24  4:30a   47.9   47.9   47.7    83   43.0   3.0   ENE   0.50   9.0    NE   47.3   47.9   47.3   43.9  30.303  0.00  0.00     0     0.00      0     0.0  0.00   0.0   0.119   0.000   69.1    49   49.1   67.6   9.07  .0751    0.000   202    7    100.0   10 
 5/20/24  4:40a   48.3   48.3   47.9    83   43.4   3.0   ENE   0.50   9.0   ENE   47.7   48.3   47.7   44.3  30.300  0.00  0.00     0     0.00      0     0.0  0.00   0.0   0.116   0.000   69.0    49   49.0   67.5   9.07  .0751    0.000   202    7    100.0   10 
 5/20/24  4:50a   48.7   48.7   48.3    83   43.8   4.0   ENE   0.67  12.0    NE   47.4   48.7   47.4   44.0  30.301  0.00  0.00     0     0.00      0     0.0  0.00   0.0   0.113   0.000   68.9    49   48.9   67.4   9.07  .0752    0.000   203    7    100.0   10 
 5/20/24  5:00a   48.8   48.8   48.7    83   43.9   4.0   ENE   0.67   9.0   ENE   47.5   48.8   47.5   44.1  30.299  0.00  0.00     0     0.00      0     0.0  0.00   0.0   0.113   0.000   68.8    49   48.9   67.3   9.07  .0752    0.001   202    7    100.0   10 
 5/20/24  5:10a   48.7   48.8   48.7    82   43.5   3.0   ENE   0.50  10.0    NE   48.2   48.7   48.2   44.8  30.300  0.00  0.00     0     0.00      0     0.0  0.00   0.0   0.113   0.000   68.8    49   48.9   67.3   9.07  .0752    0.000   204    7    100.0   10 
 5/20/24  5:20a   48.7   48.7   48.6    83   43.8   3.0    NE   0.50   9.0   ENE   48.2   48.7   48.2   44.8  30.299  0.00  0.00     0     0.00      0     0.0  0.00   0.0   0.113   0.000   68.7    49   48.8   67.2   9.08  .0752    0.000   202    7    100.0   10 
 5/20/24  5:30a   48.6   48.7   48.6    83   43.7   3.0   ENE   0.50   8.0   NNE   48.1   48.6   48.1   44.7  30.302  0.00  0.00     0     0.00      0     0.0  0.00   0.0   0.114   0.000   68.7    49   48.8   67.2   9.08  .0752    0.000   205    7    100.0   10 
 5/20/24  5:40a   48.5   48.7   48.5    82   43.3   3.0    NE   0.50  10.0    NE   48.0   48.5   48.0   44.6  30.303  0.00  0.00     1     0.01      5     0.0  0.00   0.0   0.115   0.000   68.8    49   48.9   67.3   9.07  .0752    0.000   202    7    100.0   10 
Email: AdamSPAM@StormwatchersRetreat.com (To send me email remove the word 'SPAM' from my email address.)